createdAt,value
2022-10-11T00:00:01.396Z,100.00
2022-10-11T00:02:29.099Z,100.00
2022-10-11T00:04:56.785Z,100.00
2022-10-11T00:07:24.457Z,100.00
2022-10-11T00:09:52.171Z,100.00
2022-10-11T00:12:19.856Z,100.00
2022-10-11T00:14:47.557Z,100.00
2022-10-11T00:17:15.643Z,100.00
2022-10-11T00:19:43.373Z,100.00
2022-10-11T00:22:11.088Z,100.00
2022-10-11T00:24:38.795Z,100.00
2022-10-11T00:27:06.486Z,100.00
2022-10-11T00:29:34.163Z,100.00
2022-10-11T00:32:01.903Z,100.00
2022-10-11T00:34:29.591Z,100.00
2022-10-11T00:36:57.289Z,100.00
2022-10-11T00:39:24.991Z,100.00
2022-10-11T00:41:52.717Z,100.00
2022-10-11T00:44:23.117Z,100.00
2022-10-11T00:47:02.540Z,100.00
2022-10-11T00:49:36.600Z,100.00
2022-10-11T00:52:07.541Z,100.00
2022-10-11T00:54:36.629Z,100.00
2022-10-11T00:57:06.503Z,100.00
2022-10-11T00:59:37.730Z,100.00
2022-10-11T01:02:05.616Z,100.00
2022-10-11T01:04:33.696Z,100.00
2022-10-11T01:07:02.365Z,100.00
2022-10-11T01:09:30.298Z,100.00
2022-10-11T01:11:59.372Z,100.00
2022-10-11T01:14:36.397Z,100.00
2022-10-11T01:17:42.542Z,100.00
2022-10-11T01:20:28.900Z,100.00
2022-10-11T01:23:27.697Z,100.00
2022-10-11T01:26:31.346Z,100.00
2022-10-11T01:29:26.719Z,100.00
2022-10-11T01:31:59.748Z,100.00
2022-10-11T01:34:43.395Z,100.00
2022-10-11T01:37:34.334Z,100.00
2022-10-11T01:40:08.001Z,100.00
2022-10-11T01:42:37.602Z,100.00
2022-10-11T01:45:05.600Z,100.00
2022-10-11T01:47:33.262Z,100.00
2022-10-11T01:50:02.071Z,100.00
2022-10-11T01:52:34.667Z,100.00
2022-10-11T01:55:26.222Z,100.00
2022-10-11T01:58:11.194Z,100.00
2022-10-11T02:00:50.201Z,100.00
2022-10-11T02:03:50.336Z,100.00
2022-10-11T02:06:37.927Z,100.00
2022-10-11T02:09:28.963Z,100.00
2022-10-11T02:11:58.305Z,100.00
2022-10-11T02:14:27.484Z,100.00
2022-10-11T02:17:05.448Z,100.00
2022-10-11T02:19:36.323Z,100.00
2022-10-11T02:22:07.362Z,100.00
2022-10-11T02:24:36.605Z,100.00
2022-10-11T02:27:05.025Z,100.00
2022-10-11T02:29:35.190Z,100.00
2022-10-11T02:32:02.985Z,100.00
2022-10-11T02:34:36.866Z,100.00
2022-10-11T02:37:07.363Z,100.00
2022-10-11T02:39:42.232Z,100.00
2022-10-11T02:42:18.767Z,100.00
2022-10-11T02:44:49.350Z,100.00
2022-10-11T02:47:17.021Z,100.00
2022-10-11T02:49:44.716Z,100.00
2022-10-11T02:52:12.412Z,100.00
2022-10-11T02:54:40.079Z,100.00
2022-10-11T02:57:07.762Z,100.00
2022-10-11T02:59:35.472Z,100.00
2022-10-11T03:02:03.206Z,100.00
2022-10-11T03:04:30.968Z,100.00
2022-10-11T03:06:58.669Z,100.00
2022-10-11T03:09:26.363Z,100.00
2022-10-11T03:11:54.097Z,100.00
2022-10-11T03:14:21.839Z,100.00
2022-10-11T03:16:51.568Z,100.00
2022-10-11T03:19:19.617Z,100.00
2022-10-11T03:21:47.673Z,100.00
2022-10-11T03:24:15.478Z,100.00
2022-10-11T03:26:43.243Z,100.00
2022-10-11T03:29:11.015Z,100.00
2022-10-11T03:31:38.699Z,100.00
2022-10-11T03:34:06.397Z,100.00
2022-10-11T03:36:34.118Z,100.00
2022-10-11T03:39:02.002Z,100.00
2022-10-11T03:41:29.866Z,100.00
2022-10-11T03:43:57.658Z,100.00
2022-10-11T03:46:25.402Z,100.00
2022-10-11T03:48:53.412Z,100.00
2022-10-11T03:51:21.149Z,100.00
2022-10-11T03:53:48.878Z,100.00
2022-10-11T03:56:16.771Z,100.00
2022-10-11T03:58:44.426Z,100.00
2022-10-11T04:01:12.239Z,100.00
2022-10-11T04:03:39.917Z,100.00
2022-10-11T04:06:08.499Z,100.00
2022-10-11T04:08:36.515Z,100.00
2022-10-11T04:11:04.272Z,100.00
2022-10-11T04:13:32.299Z,100.00
2022-10-11T04:16:00.088Z,100.00
2022-10-11T04:18:27.790Z,100.00
2022-10-11T04:20:56.776Z,100.00
2022-10-11T04:23:24.560Z,100.00
2022-10-11T04:25:52.217Z,100.00
2022-10-11T04:28:20.084Z,100.00
2022-10-11T04:30:47.880Z,100.00
2022-10-11T04:33:15.565Z,100.00
2022-10-11T04:35:43.245Z,100.00
2022-10-11T04:38:11.017Z,100.00
2022-10-11T04:40:38.711Z,100.00
2022-10-11T04:43:06.390Z,100.00
2022-10-11T04:45:34.399Z,100.00
2022-10-11T04:48:02.074Z,100.00
2022-10-11T04:50:29.774Z,100.00
2022-10-11T04:52:57.482Z,100.00
2022-10-11T04:55:25.165Z,100.00
2022-10-11T04:57:52.923Z,100.00
2022-10-11T05:00:20.596Z,100.00
2022-10-11T05:02:48.272Z,100.00
2022-10-11T05:05:18.631Z,100.00
2022-10-11T05:07:46.329Z,100.00
2022-10-11T05:10:14.056Z,100.00
2022-10-11T05:12:41.789Z,100.00
2022-10-11T05:15:10.393Z,100.00
2022-10-11T05:17:38.139Z,100.00
2022-10-11T05:20:06.380Z,100.00
2022-10-11T05:22:34.066Z,100.00
2022-10-11T05:25:01.817Z,100.00
2022-10-11T05:27:29.497Z,100.00
2022-10-11T05:29:57.191Z,100.00
2022-10-11T05:32:27.850Z,100.00
2022-10-11T05:34:55.909Z,100.00
2022-10-11T05:37:23.749Z,100.00
2022-10-11T05:39:51.608Z,100.00
2022-10-11T05:42:19.346Z,100.00
2022-10-11T05:44:47.081Z,100.00
2022-10-11T05:47:14.800Z,100.00
2022-10-11T05:49:42.463Z,100.00
2022-10-11T05:52:11.657Z,100.00
2022-10-11T05:54:39.594Z,100.00
2022-10-11T05:57:07.330Z,100.00
2022-10-11T05:59:36.264Z,100.00
2022-10-11T06:02:04.624Z,100.00
2022-10-11T06:04:32.426Z,100.00
2022-10-11T06:07:00.402Z,100.00
2022-10-11T06:09:28.158Z,100.00
2022-10-11T06:11:55.882Z,100.00
2022-10-11T06:14:23.633Z,100.00
2022-10-11T06:16:51.387Z,100.00
2022-10-11T06:19:19.278Z,100.00
2022-10-11T06:21:47.944Z,100.00
2022-10-11T06:24:16.221Z,100.00
2022-10-11T06:26:44.026Z,100.00
2022-10-11T06:29:11.896Z,100.00
2022-10-11T06:31:39.636Z,100.00
2022-10-11T06:34:07.505Z,100.00
2022-10-11T06:36:35.328Z,100.00
2022-10-11T06:39:03.396Z,100.00
2022-10-11T06:41:31.407Z,100.00
2022-10-11T06:43:59.281Z,100.00
2022-10-11T06:46:28.020Z,100.00
2022-10-11T06:48:57.518Z,100.00
2022-10-11T06:51:25.977Z,100.00
2022-10-11T06:53:56.687Z,100.00
2022-10-11T06:56:24.744Z,100.00
2022-10-11T06:58:52.636Z,100.00
2022-10-11T07:01:22.540Z,100.00
2022-10-11T07:03:50.998Z,100.00
2022-10-11T07:06:22.917Z,100.00
2022-10-11T07:08:50.853Z,100.00
2022-10-11T07:11:23.241Z,100.00
2022-10-11T07:14:01.864Z,100.00
2022-10-11T07:16:29.709Z,100.00
2022-10-11T07:19:01.378Z,100.00
2022-10-11T07:21:30.259Z,100.00
2022-10-11T07:23:58.002Z,100.00
2022-10-11T07:26:25.847Z,100.00
2022-10-11T07:28:53.612Z,100.00
2022-10-11T07:31:23.578Z,100.00
2022-10-11T07:33:51.294Z,100.00
2022-10-11T07:36:19.008Z,100.00
2022-10-11T07:38:47.540Z,100.00
2022-10-11T07:41:15.718Z,100.00
2022-10-11T07:43:48.196Z,100.00
2022-10-11T07:46:16.053Z,100.00
2022-10-11T07:48:43.974Z,100.00
2022-10-11T07:51:13.671Z,100.00
2022-10-11T07:53:45.479Z,100.00
2022-10-11T07:56:14.211Z,100.00
2022-10-11T07:58:42.410Z,100.00
2022-10-11T08:01:10.866Z,100.00
2022-10-11T08:03:38.961Z,100.00
2022-10-11T08:06:09.342Z,100.00
2022-10-11T08:08:37.759Z,100.00
2022-10-11T08:11:06.226Z,100.00
2022-10-11T08:13:33.993Z,100.00
2022-10-11T08:16:01.965Z,100.00
2022-10-11T08:18:29.884Z,100.00
2022-10-11T08:20:57.818Z,100.00
2022-10-11T08:23:25.586Z,100.00
2022-10-11T08:25:57.356Z,100.00
2022-10-11T08:28:25.273Z,100.00
2022-10-11T08:30:54.132Z,100.00
2022-10-11T08:33:23.031Z,100.00
2022-10-11T08:35:51.345Z,100.00
2022-10-11T08:38:19.439Z,100.00
2022-10-11T08:40:56.118Z,100.00
2022-10-11T08:43:23.845Z,100.00
2022-10-11T08:45:52.408Z,100.00
2022-10-11T08:48:27.340Z,100.00
2022-10-11T08:50:55.112Z,100.00
2022-10-11T08:53:45.102Z,100.00
2022-10-11T08:56:16.127Z,100.00
2022-10-11T08:59:03.203Z,100.00
2022-10-11T09:01:31.828Z,100.00
2022-10-11T09:04:01.184Z,100.00
2022-10-11T09:06:38.520Z,100.00
2022-10-11T09:09:29.891Z,100.00
2022-10-11T09:12:12.946Z,100.00
2022-10-11T09:15:02.311Z,100.00
2022-10-11T09:17:46.024Z,100.00
2022-10-11T09:20:44.681Z,100.00
2022-10-11T09:23:36.828Z,100.00
2022-10-11T09:26:19.274Z,100.00
2022-10-11T09:29:04.537Z,100.00
2022-10-11T09:31:32.976Z,100.00
2022-10-11T09:34:01.177Z,98.44
2022-10-11T09:36:31.909Z,98.68
2022-10-11T09:39:18.270Z,96.30
2022-10-11T09:41:57.352Z,96.20
2022-10-11T09:44:26.874Z,98.90
2022-10-11T09:46:55.575Z,96.91
2022-10-11T09:49:25.264Z,95.99
2022-10-11T09:51:58.093Z,93.45
2022-10-11T09:54:39.721Z,93.54
2022-10-11T09:57:08.052Z,93.21
2022-10-11T09:59:36.283Z,91.64
2022-10-11T10:02:07.934Z,92.12
2022-10-11T10:04:35.652Z,92.53
2022-10-11T10:07:14.233Z,90.29
2022-10-11T10:09:41.945Z,88.17
2022-10-11T10:12:14.190Z,92.16
2022-10-11T10:14:42.030Z,89.52
2022-10-11T10:17:19.558Z,89.35
2022-10-11T10:19:51.684Z,90.01
2022-10-11T10:22:21.562Z,89.79
2022-10-11T10:24:50.530Z,89.98
2022-10-11T10:27:23.814Z,90.99
2022-10-11T10:30:02.903Z,91.02
2022-10-11T10:32:56.419Z,86.32
2022-10-11T10:35:39.966Z,89.27
2022-10-11T10:38:26.874Z,86.58
2022-10-11T10:40:57.864Z,88.51
2022-10-11T10:43:27.234Z,87.02
2022-10-11T10:46:13.037Z,86.99
2022-10-11T10:49:41.599Z,83.73
2022-10-11T10:52:17.731Z,83.85
2022-10-11T10:54:47.795Z,80.26
2022-10-11T10:57:37.058Z,81.06
2022-10-11T11:00:16.840Z,83.33
2022-10-11T11:02:53.472Z,79.99
2022-10-11T11:05:28.486Z,81.65
2022-10-11T11:08:05.969Z,78.45
2022-10-11T11:10:40.426Z,77.85
2022-10-11T11:13:20.392Z,79.17
2022-10-11T11:16:26.614Z,77.58
2022-10-11T11:19:02.501Z,76.27
2022-10-11T11:21:45.421Z,74.72
2022-10-11T11:24:22.123Z,74.94
2022-10-11T11:27:02.701Z,75.10
2022-10-11T11:30:06.701Z,72.96
2022-10-11T11:32:49.756Z,72.05
2022-10-11T11:35:27.363Z,73.44
2022-10-11T11:38:03.821Z,73.59
2022-10-11T11:40:38.375Z,74.57
2022-10-11T11:43:09.705Z,72.82
2022-10-11T11:45:49.956Z,73.15
2022-10-11T11:48:25.889Z,74.43
2022-10-11T11:51:17.108Z,73.25
2022-10-11T11:53:48.072Z,73.70
2022-10-11T11:56:28.951Z,74.18
2022-10-11T11:59:20.912Z,72.19
2022-10-11T12:02:11.781Z,72.38
2022-10-11T12:04:41.368Z,74.04
2022-10-11T12:07:17.518Z,74.22
2022-10-11T12:09:52.865Z,74.13
2022-10-11T12:12:35.134Z,74.42
2022-10-11T12:15:20.088Z,71.62
2022-10-11T12:17:59.574Z,72.82
2022-10-11T12:20:38.109Z,72.67
2022-10-11T12:23:26.654Z,72.29
2022-10-11T12:26:31.895Z,72.64
2022-10-11T12:29:06.273Z,70.87
2022-10-11T12:31:35.481Z,70.37
2022-10-11T12:34:03.192Z,71.17
2022-10-11T12:36:31.530Z,73.05
2022-10-11T12:39:21.117Z,70.84
2022-10-11T12:41:48.778Z,68.25
2022-10-11T12:44:19.399Z,69.70
2022-10-11T12:46:56.239Z,68.91
2022-10-11T12:49:47.233Z,66.69
2022-10-11T12:52:25.962Z,70.01
2022-10-11T12:55:02.765Z,70.93
2022-10-11T12:57:51.877Z,68.51
2022-10-11T13:00:22.707Z,70.67
2022-10-11T13:02:50.606Z,70.04
2022-10-11T13:05:33.059Z,68.93
2022-10-11T13:08:06.843Z,67.15
2022-10-11T13:10:41.794Z,67.23
2022-10-11T13:13:16.016Z,68.71
2022-10-11T13:15:43.776Z,69.66
2022-10-11T13:18:15.658Z,70.21
2022-10-11T13:20:43.404Z,70.47
2022-10-11T13:23:24.635Z,69.82
2022-10-11T13:25:52.573Z,66.73
2022-10-11T13:28:20.566Z,68.69
2022-10-11T13:30:50.039Z,69.27
2022-10-11T13:33:35.816Z,71.03
2022-10-11T13:36:05.376Z,71.02
2022-10-11T13:38:36.058Z,71.98
2022-10-11T13:41:10.506Z,72.38
2022-10-11T13:43:38.317Z,71.92
2022-10-11T13:46:06.591Z,71.96
2022-10-11T13:48:40.439Z,72.84
2022-10-11T13:51:18.029Z,71.95
2022-10-11T13:54:11.742Z,73.26
2022-10-11T13:56:45.512Z,74.34
2022-10-11T13:59:26.129Z,75.69
2022-10-11T14:01:59.043Z,74.37
2022-10-11T14:04:29.774Z,75.55
2022-10-11T14:07:03.460Z,76.01
2022-10-11T14:09:32.644Z,75.87
2022-10-11T14:12:36.552Z,76.79
2022-10-11T14:15:06.305Z,77.46
2022-10-11T14:17:42.906Z,78.00
2022-10-11T14:20:28.301Z,78.70
2022-10-11T14:22:58.695Z,77.57
2022-10-11T14:25:26.501Z,77.99
2022-10-11T14:27:55.699Z,78.35
2022-10-11T14:30:26.508Z,79.19
2022-10-11T14:32:56.447Z,78.56
2022-10-11T14:35:28.677Z,78.94
2022-10-11T14:37:56.432Z,78.79
2022-10-11T14:40:27.416Z,79.48
2022-10-11T14:42:55.204Z,79.86
2022-10-11T14:45:22.954Z,79.37
2022-10-11T14:47:50.806Z,79.92
2022-10-11T14:50:29.769Z,80.30
2022-10-11T14:52:57.573Z,79.72
2022-10-11T14:55:26.534Z,79.95
2022-10-11T14:57:54.367Z,79.30
2022-10-11T15:00:26.550Z,79.77
2022-10-11T15:02:54.512Z,79.70
2022-10-11T15:05:23.366Z,80.42
2022-10-11T15:07:51.269Z,79.67
2022-10-11T15:10:28.812Z,78.76
2022-10-11T15:12:56.783Z,80.37
2022-10-11T15:15:26.949Z,80.21
2022-10-11T15:17:56.138Z,79.14
2022-10-11T15:20:49.201Z,79.77
2022-10-11T15:23:17.251Z,81.62
2022-10-11T15:25:45.042Z,82.08
2022-10-11T15:28:22.033Z,82.91
2022-10-11T15:30:49.886Z,83.30
2022-10-11T15:33:17.593Z,83.58
2022-10-11T15:35:45.487Z,83.52
2022-10-11T15:38:24.335Z,83.43
2022-10-11T15:40:52.357Z,84.69
2022-10-11T15:43:24.507Z,82.34
2022-10-11T15:45:58.130Z,81.94
2022-10-11T15:48:27.449Z,82.09
2022-10-11T15:50:55.447Z,82.86
2022-10-11T15:53:24.845Z,83.65
2022-10-11T15:55:54.015Z,83.34
2022-10-11T15:58:32.256Z,82.66
2022-10-11T16:01:01.688Z,83.55
2022-10-11T16:03:30.281Z,82.06
2022-10-11T16:06:03.858Z,83.26
2022-10-11T16:08:32.892Z,83.91
2022-10-11T16:11:00.642Z,84.99
2022-10-11T16:13:28.354Z,84.56
2022-10-11T16:15:56.353Z,85.70
2022-10-11T16:18:24.128Z,85.93
2022-10-11T16:20:52.970Z,87.07
2022-10-11T16:23:21.697Z,87.87
2022-10-11T16:25:58.051Z,87.08
2022-10-11T16:28:26.221Z,88.13
2022-10-11T16:30:54.127Z,88.91
2022-10-11T16:33:22.029Z,89.33
2022-10-11T16:35:49.836Z,89.49
2022-10-11T16:38:17.637Z,88.94
2022-10-11T16:40:45.357Z,90.29
2022-10-11T16:43:13.092Z,91.03
2022-10-11T16:45:40.857Z,89.88
2022-10-11T16:48:08.538Z,90.50
2022-10-11T16:50:39.548Z,90.33
2022-10-11T16:53:07.652Z,91.39
2022-10-11T16:55:35.385Z,92.39
2022-10-11T16:58:03.351Z,93.08
2022-10-11T17:00:31.071Z,93.56
2022-10-11T17:02:58.911Z,93.73
2022-10-11T17:05:26.606Z,94.11
2022-10-11T17:07:54.271Z,93.49
2022-10-11T17:10:40.275Z,94.50
2022-10-11T17:13:08.074Z,95.26
2022-10-11T17:15:37.236Z,95.75
2022-10-11T17:18:05.051Z,96.15
2022-10-11T17:20:33.061Z,96.46
2022-10-11T17:23:00.768Z,96.83
2022-10-11T17:25:29.213Z,97.74
2022-10-11T17:27:57.717Z,98.29
2022-10-11T17:30:25.719Z,98.49
2022-10-11T17:32:53.458Z,98.79
2022-10-11T17:35:21.166Z,99.18
2022-10-11T17:37:50.976Z,99.29
2022-10-11T17:40:18.869Z,99.18
2022-10-11T17:42:48.808Z,98.48
2022-10-11T17:45:16.649Z,99.22
2022-10-11T17:47:44.525Z,99.14
2022-10-11T17:50:12.406Z,100.00
2022-10-11T17:52:40.223Z,100.00
2022-10-11T17:55:08.238Z,100.00
2022-10-11T17:57:36.002Z,100.00
2022-10-11T18:00:05.082Z,100.00
2022-10-11T18:02:32.790Z,100.00
2022-10-11T18:05:00.755Z,100.00
2022-10-11T18:07:28.545Z,100.00
2022-10-11T18:09:56.506Z,100.00
2022-10-11T18:12:24.826Z,100.00
2022-10-11T18:14:52.888Z,100.00
2022-10-11T18:17:20.738Z,100.00
2022-10-11T18:19:48.908Z,100.00
2022-10-11T18:22:16.918Z,100.00
2022-10-11T18:24:44.931Z,100.00
2022-10-11T18:27:12.834Z,100.00
2022-10-11T18:29:40.742Z,100.00
2022-10-11T18:32:08.540Z,100.00
2022-10-11T18:34:36.289Z,100.00
2022-10-11T18:37:04.208Z,100.00
2022-10-11T18:39:31.939Z,100.00
2022-10-11T18:42:00.689Z,100.00
2022-10-11T18:44:28.475Z,100.00
2022-10-11T18:46:56.250Z,100.00
2022-10-11T18:49:24.121Z,100.00
2022-10-11T18:51:51.992Z,100.00
2022-10-11T18:54:21.502Z,100.00
2022-10-11T18:56:49.583Z,100.00
2022-10-11T18:59:17.409Z,100.00
2022-10-11T19:01:45.820Z,100.00
2022-10-11T19:04:14.790Z,100.00
2022-10-11T19:06:44.428Z,100.00
2022-10-11T19:09:14.319Z,100.00
2022-10-11T19:11:42.930Z,100.00
2022-10-11T19:14:13.376Z,100.00
2022-10-11T19:16:46.503Z,100.00
2022-10-11T19:19:14.423Z,100.00
2022-10-11T19:21:42.257Z,100.00
2022-10-11T19:24:10.280Z,100.00
2022-10-11T19:26:39.621Z,100.00
2022-10-11T19:29:09.271Z,100.00
2022-10-11T19:31:38.341Z,100.00
2022-10-11T19:34:06.070Z,100.00
2022-10-11T19:36:36.683Z,100.00
2022-10-11T19:39:05.369Z,100.00
2022-10-11T19:41:33.371Z,100.00
2022-10-11T19:44:01.167Z,100.00
2022-10-11T19:49:18.838Z,100.00
2022-10-11T19:51:46.722Z,100.00
2022-10-11T19:54:14.976Z,100.00
2022-10-11T19:56:43.542Z,100.00
2022-10-11T19:59:11.710Z,100.00
2022-10-11T20:01:39.513Z,100.00
2022-10-11T20:04:08.610Z,100.00
2022-10-11T20:06:39.877Z,100.00
2022-10-11T20:09:28.677Z,100.00
2022-10-11T20:11:57.938Z,100.00
2022-10-11T20:14:26.080Z,100.00
2022-10-11T20:16:54.264Z,100.00
2022-10-11T20:19:26.503Z,100.00
2022-10-11T20:21:58.119Z,100.00
2022-10-11T20:24:28.412Z,100.00
2022-10-11T20:26:56.563Z,100.00
2022-10-11T20:29:26.390Z,100.00
2022-10-11T20:31:54.310Z,100.00
2022-10-11T20:34:23.458Z,100.00
2022-10-11T20:36:51.247Z,100.00
2022-10-11T20:39:19.178Z,100.00
2022-10-11T20:41:49.658Z,100.00
2022-10-11T20:44:18.915Z,100.00
2022-10-11T20:46:47.400Z,100.00
2022-10-11T20:49:15.271Z,100.00
2022-10-11T20:51:43.067Z,100.00
2022-10-11T20:54:10.903Z,100.00
2022-10-11T20:56:38.873Z,100.00
2022-10-11T20:59:07.313Z,100.00
2022-10-11T21:01:38.103Z,100.00
2022-10-11T21:04:06.395Z,100.00
2022-10-11T21:06:34.228Z,100.00
2022-10-11T21:09:02.092Z,100.00
2022-10-11T21:11:31.045Z,100.00
2022-10-11T21:13:59.828Z,100.00
2022-10-11T21:16:28.250Z,100.00
2022-10-11T21:18:56.716Z,100.00
2022-10-11T21:21:25.218Z,100.00
2022-10-11T21:23:59.886Z,100.00
2022-10-11T21:26:28.474Z,100.00
2022-10-11T21:28:56.358Z,100.00
2022-10-11T21:31:25.367Z,100.00
2022-10-11T21:33:55.147Z,100.00
2022-10-11T21:36:23.977Z,100.00
2022-10-11T21:38:51.890Z,100.00
2022-10-11T21:41:24.033Z,100.00
2022-10-11T21:43:52.015Z,100.00
2022-10-11T21:46:20.659Z,100.00
2022-10-11T21:48:48.609Z,100.00
2022-10-11T21:51:21.621Z,100.00
2022-10-11T21:53:49.341Z,100.00
2022-10-11T21:56:17.102Z,100.00
2022-10-11T21:58:44.790Z,100.00
2022-10-11T22:01:12.979Z,100.00
2022-10-11T22:03:40.737Z,100.00
2022-10-11T22:06:08.417Z,100.00
2022-10-11T22:08:36.175Z,100.00
2022-10-11T22:11:04.002Z,100.00
2022-10-11T22:13:32.680Z,100.00
2022-10-11T22:16:04.772Z,100.00
2022-10-11T22:18:33.745Z,100.00
2022-10-11T22:21:15.629Z,100.00
2022-10-11T22:23:44.127Z,100.00
2022-10-11T22:26:13.718Z,100.00
2022-10-11T22:28:41.555Z,100.00
2022-10-11T22:31:09.746Z,100.00
2022-10-11T22:33:37.724Z,100.00
2022-10-11T22:36:07.087Z,100.00
2022-10-11T22:38:34.768Z,100.00
2022-10-11T22:41:02.586Z,100.00
2022-10-11T22:43:30.272Z,100.00
2022-10-11T22:45:57.957Z,100.00
2022-10-11T22:48:25.682Z,100.00
2022-10-11T22:50:53.471Z,100.00
2022-10-11T22:53:21.382Z,100.00
2022-10-11T22:55:49.179Z,100.00
2022-10-11T22:58:16.919Z,100.00
2022-10-11T23:00:44.802Z,100.00
2022-10-11T23:03:16.349Z,100.00
2022-10-11T23:05:44.069Z,100.00
2022-10-11T23:08:12.901Z,100.00
2022-10-11T23:10:41.192Z,100.00
2022-10-11T23:13:08.842Z,100.00
2022-10-11T23:15:40.265Z,100.00
2022-10-11T23:18:08.020Z,100.00
2022-10-11T23:20:35.711Z,100.00
2022-10-11T23:23:03.414Z,100.00
2022-10-11T23:25:31.166Z,100.00
2022-10-11T23:28:01.426Z,100.00
2022-10-11T23:30:30.094Z,100.00
2022-10-11T23:32:59.953Z,100.00
2022-10-11T23:35:27.649Z,100.00
2022-10-11T23:37:55.917Z,100.00
2022-10-11T23:40:23.660Z,100.00
2022-10-11T23:42:51.480Z,100.00
2022-10-11T23:45:19.188Z,100.00
2022-10-11T23:47:46.878Z,100.00
2022-10-11T23:50:14.601Z,100.00
2022-10-11T23:52:42.303Z,100.00
2022-10-11T23:55:10.341Z,100.00
2022-10-11T23:57:38.297Z,100.00
